LYBE/BEG METAR and TAF weather

Enter ICAO airport designator
Station Type Date Time Source
LYBE METAR 2022/08/16 19:30 UTC NOAA

LYBE 161930Z 27008KT CAVOK 26/14 Q1011 NOSIG


Station Type Date Time Source
LYBE Decoded METAR 2022/08/16 19:30 UTC NOAA

Beograd / Surcin, Serbia and Montenegro (LYBE) 44-49N 020-17E 99M
Aug 16, 2022 - 03:30 PM EDT / 2022.08.16 1930 UTC
Wind: from the W (270 degrees) at 9 MPH (8 KT):0
Visibility: greater than 7 mile(s):0
Temperature: 78 F (26 C)
Dew Point: 57 F (14 C)
Relative Humidity: 47%
Pressure (altimeter): 29.85 in. Hg (1011 hPa)
ob: LYBE 161930Z 27008KT CAVOK 26/14 Q1011 NOSIG
cycle: 19

Station Type Date Time Source
LYBE TAF 2022/08/16 18:21 UTC NOAA

TAF LYBE 161700Z 1618/1718 27008KT CAVOK TX34/1713Z TN20/1703Z

Example: see airport list